sensor_id;sensor_type;location;lat;lon;timestamp;pressure;altitude;pressure_sealevel;temperature;humidity
65997;BME280;52765;52.258;21.052;2023-11-19T00:00:09;101302.91;;;0.69;100.00
65997;BME280;52765;52.258;21.052;2023-11-19T00:02:38;101307.38;;;0.69;100.00
65997;BME280;52765;52.258;21.052;2023-11-19T00:05:05;101298.47;;;0.70;100.00
65997;BME280;52765;52.258;21.052;2023-11-19T00:07:35;101298.06;;;0.79;100.00
65997;BME280;52765;52.258;21.052;2023-11-19T00:10:03;101289.31;;;0.77;100.00
65997;BME280;52765;52.258;21.052;2023-11-19T00:12:40;101293.00;;;0.73;100.00
65997;BME280;52765;52.258;21.052;2023-11-19T00:15:06;101293.66;;;0.78;100.00
65997;BME280;52765;52.258;21.052;2023-11-19T00:17:39;101299.91;;;0.77;100.00
65997;BME280;52765;52.258;21.052;2023-11-19T00:20:22;101280.84;;;0.69;100.00
65997;BME280;52765;52.258;21.052;2023-11-19T00:23:14;101293.59;;;0.80;100.00
65997;BME280;52765;52.258;21.052;2023-11-19T00:25:51;101268.44;;;0.69;100.00
65997;BME280;52765;52.258;21.052;2023-11-19T00:28:37;101288.59;;;0.92;100.00
65997;BME280;52765;52.258;21.052;2023-11-19T00:31:12;101251.97;;;0.82;100.00
65997;BME280;52765;52.258;21.052;2023-11-19T00:33:38;101273.25;;;0.99;100.00
65997;BME280;52765;52.258;21.052;2023-11-19T00:36:08;101297.75;;;1.04;100.00
65997;BME280;52765;52.258;21.052;2023-11-19T00:38:40;101286.00;;;1.10;100.00
65997;BME280;52765;52.258;21.052;2023-11-19T00:41:06;101239.19;;;0.90;100.00
65997;BME280;52765;52.258;21.052;2023-11-19T00:43:31;101261.09;;;1.13;100.00
65997;BME280;52765;52.258;21.052;2023-11-19T00:45:57;101266.63;;;1.08;100.00
65997;BME280;52765;52.258;21.052;2023-11-19T00:48:23;101254.44;;;1.04;100.00
65997;BME280;52765;52.258;21.052;2023-11-19T00:50:51;101249.50;;;0.96;100.00
65997;BME280;52765;52.258;21.052;2023-11-19T00:53:22;101243.63;;;0.89;100.00
65997;BME280;52765;52.258;21.052;2023-11-19T00:56:00;101245.50;;;0.87;100.00
65997;BME280;52765;52.258;21.052;2023-11-19T00:58:31;101224.78;;;0.77;100.00
65997;BME280;52765;52.258;21.052;2023-11-19T01:01:05;101239.03;;;0.93;100.00
65997;BME280;52765;52.258;21.052;2023-11-19T01:03:37;101197.69;;;0.70;100.00
65997;BME280;52765;52.258;21.052;2023-11-19T01:06:09;101205.13;;;0.81;100.00
65997;BME280;52765;52.258;21.052;2023-11-19T01:08:35;101215.88;;;0.97;100.00
65997;BME280;52765;52.258;21.052;2023-11-19T01:11:01;101217.00;;;1.10;100.00
65997;BME280;52765;52.258;21.052;2023-11-19T01:13:27;101219.41;;;1.15;100.00
65997;BME280;52765;52.258;21.052;2023-11-19T01:15:53;101206.72;;;1.21;100.00
65997;BME280;52765;52.258;21.052;2023-11-19T01:18:18;101208.06;;;1.30;100.00
65997;BME280;52765;52.258;21.052;2023-11-19T01:20:44;101203.38;;;1.35;100.00
65997;BME280;52765;52.258;21.052;2023-11-19T01:23:10;101196.97;;;1.39;100.00
65997;BME280;52765;52.258;21.052;2023-11-19T01:25:35;101189.16;;;1.36;100.00
65997;BME280;52765;52.258;21.052;2023-11-19T01:28:03;101188.38;;;1.34;100.00
65997;BME280;52765;52.258;21.052;2023-11-19T01:30:29;101183.38;;;1.28;100.00
65997;BME280;52765;52.258;21.052;2023-11-19T01:32:56;101192.22;;;1.28;100.00
65997;BME280;52765;52.258;21.052;2023-11-19T01:35:24;101195.78;;;1.27;100.00
65997;BME280;52765;52.258;21.052;2023-11-19T01:37:50;101200.09;;;1.30;100.00
65997;BME280;52765;52.258;21.052;2023-11-19T01:43:42;101213.53;;;1.27;100.00
65997;BME280;52765;52.258;21.052;2023-11-19T01:46:08;101193.28;;;1.24;100.00
65997;BME280;52765;52.258;21.052;2023-11-19T01:48:43;101185.25;;;1.26;100.00
65997;BME280;52765;52.258;21.052;2023-11-19T01:51:20;101179.25;;;1.22;100.00
65997;BME280;52765;52.258;21.052;2023-11-19T01:53:49;101161.50;;;1.23;100.00
65997;BME280;52765;52.258;21.052;2023-11-19T01:56:26;101158.16;;;1.19;100.00
65997;BME280;52765;52.258;21.052;2023-11-19T01:58:58;101155.19;;;1.25;100.00
65997;BME280;52765;52.258;21.052;2023-11-19T02:01:29;101155.81;;;1.31;100.00
65997;BME280;52765;52.258;21.052;2023-11-19T02:04:17;101148.41;;;1.37;100.00
65997;BME280;52765;52.258;21.052;2023-11-19T02:06:43;101152.94;;;1.35;100.00
65997;BME280;52765;52.258;21.052;2023-11-19T02:18:31;101140.59;;;1.34;100.00
65997;BME280;52765;52.258;21.052;2023-11-19T02:21:07;101130.81;;;1.35;100.00
65997;BME280;52765;52.258;21.052;2023-11-19T02:26:57;101111.84;;;1.25;100.00
65997;BME280;52765;52.258;21.052;2023-11-19T02:29:26;101114.19;;;1.31;100.00
65997;BME280;52765;52.258;21.052;2023-11-19T02:31:52;101134.44;;;1.34;100.00
65997;BME280;52765;52.258;21.052;2023-11-19T02:34:23;101129.13;;;1.34;100.00
65997;BME280;52765;52.258;21.052;2023-11-19T02:36:57;101116.47;;;1.39;100.00
65997;BME280;52765;52.258;21.052;2023-11-19T02:39:26;101114.50;;;1.42;100.00
65997;BME280;52765;52.258;21.052;2023-11-19T02:41:51;101104.66;;;1.44;100.00
65997;BME280;52765;52.258;21.052;2023-11-19T02:44:18;101109.81;;;1.47;100.00
65997;BME280;52765;52.258;21.052;2023-11-19T02:46:43;101110.66;;;1.48;100.00
65997;BME280;52765;52.258;21.052;2023-11-19T02:49:09;101106.16;;;1.50;100.00
65997;BME280;52765;52.258;21.052;2023-11-19T02:51:34;101104.34;;;1.51;100.00
65997;BME280;52765;52.258;21.052;2023-11-19T02:54:02;101088.56;;;1.47;100.00
65997;BME280;52765;52.258;21.052;2023-11-19T02:56:29;101083.81;;;1.54;100.00
65997;BME280;52765;52.258;21.052;2023-11-19T02:59:00;101074.91;;;1.55;100.00
65997;BME280;52765;52.258;21.052;2023-11-19T03:01:34;101077.28;;;1.60;100.00
65997;BME280;52765;52.258;21.052;2023-11-19T03:04:01;101084.41;;;1.59;100.00
65997;BME280;52765;52.258;21.052;2023-11-19T03:06:27;101067.41;;;1.63;100.00
65997;BME280;52765;52.258;21.052;2023-11-19T03:08:55;101060.88;;;1.69;100.00
65997;BME280;52765;52.258;21.052;2023-11-19T03:11:23;101058.22;;;1.69;100.00
65997;BME280;52765;52.258;21.052;2023-11-19T03:13:49;101056.94;;;1.60;100.00
65997;BME280;52765;52.258;21.052;2023-11-19T03:16:15;101058.47;;;1.64;100.00
65997;BME280;52765;52.258;21.052;2023-11-19T03:18:41;101053.16;;;1.64;100.00
65997;BME280;52765;52.258;21.052;2023-11-19T03:21:07;101047.06;;;1.62;100.00
65997;BME280;52765;52.258;21.052;2023-11-19T03:23:36;101038.09;;;1.65;100.00
65997;BME280;52765;52.258;21.052;2023-11-19T03:26:02;101039.72;;;1.67;100.00
65997;BME280;52765;52.258;21.052;2023-11-19T03:28:31;101033.47;;;1.69;100.00
65997;BME280;52765;52.258;21.052;2023-11-19T03:30:57;101026.44;;;1.67;100.00
65997;BME280;52765;52.258;21.052;2023-11-19T03:33:22;101027.13;;;1.71;100.00
65997;BME280;52765;52.258;21.052;2023-11-19T03:35:48;101017.78;;;1.64;100.00
65997;BME280;52765;52.258;21.052;2023-11-19T03:38:14;101018.97;;;1.58;100.00
65997;BME280;52765;52.258;21.052;2023-11-19T03:40:40;101016.41;;;1.57;100.00
65997;BME280;52765;52.258;21.052;2023-11-19T03:43:06;101022.31;;;1.62;100.00
65997;BME280;52765;52.258;21.052;2023-11-19T03:45:31;101024.03;;;1.63;100.00
65997;BME280;52765;52.258;21.052;2023-11-19T03:48:06;101021.19;;;1.66;100.00
65997;BME280;52765;52.258;21.052;2023-11-19T03:50:31;101016.66;;;1.68;100.00
65997;BME280;52765;52.258;21.052;2023-11-19T03:53:00;101006.22;;;1.65;100.00
65997;BME280;52765;52.258;21.052;2023-11-19T03:55:28;100999.94;;;1.66;100.00
65997;BME280;52765;52.258;21.052;2023-11-19T03:57:56;101005.34;;;1.64;100.00
65997;BME280;52765;52.258;21.052;2023-11-19T04:00:22;100991.13;;;1.65;100.00
65997;BME280;52765;52.258;21.052;2023-11-19T04:02:48;100986.59;;;1.67;100.00
65997;BME280;52765;52.258;21.052;2023-11-19T04:05:14;100979.56;;;1.66;100.00
65997;BME280;52765;52.258;21.052;2023-11-19T04:07:39;100983.09;;;1.67;100.00
65997;BME280;52765;52.258;21.052;2023-11-19T04:10:05;100978.78;;;1.64;100.00
65997;BME280;52765;52.258;21.052;2023-11-19T04:12:31;100977.09;;;1.63;100.00
65997;BME280;52765;52.258;21.052;2023-11-19T04:14:56;100975.28;;;1.64;100.00
65997;BME280;52765;52.258;21.052;2023-11-19T04:17:22;100969.03;;;1.65;100.00
65997;BME280;52765;52.258;21.052;2023-11-19T04:19:48;100968.16;;;1.64;100.00
65997;BME280;52765;52.258;21.052;2023-11-19T04:22:14;100963.88;;;1.62;100.00
65997;BME280;52765;52.258;21.052;2023-11-19T04:24:45;100958.50;;;1.63;100.00
65997;BME280;52765;52.258;21.052;2023-11-19T04:27:11;100951.53;;;1.61;100.00
65997;BME280;52765;52.258;21.052;2023-11-19T04:29:37;100950.53;;;1.63;100.00
65997;BME280;52765;52.258;21.052;2023-11-19T04:32:02;100939.53;;;1.70;100.00
65997;BME280;52765;52.258;21.052;2023-11-19T04:34:28;100936.81;;;1.71;100.00
65997;BME280;52765;52.258;21.052;2023-11-19T04:36:54;100933.22;;;1.72;100.00
65997;BME280;52765;52.258;21.052;2023-11-19T04:39:19;100933.97;;;1.74;100.00
65997;BME280;52765;52.258;21.052;2023-11-19T04:41:49;100930.66;;;1.71;100.00
65997;BME280;52765;52.258;21.052;2023-11-19T04:44:16;100913.94;;;1.69;100.00
65997;BME280;52765;52.258;21.052;2023-11-19T04:46:42;100913.94;;;1.69;100.00
65997;BME280;52765;52.258;21.052;2023-11-19T04:49:11;100910.84;;;1.60;100.00
65997;BME280;52765;52.258;21.052;2023-11-19T04:51:39;100908.38;;;1.57;100.00
65997;BME280;52765;52.258;21.052;2023-11-19T04:54:05;100916.34;;;1.57;100.00
65997;BME280;52765;52.258;21.052;2023-11-19T04:56:33;100912.75;;;1.58;100.00
65997;BME280;52765;52.258;21.052;2023-11-19T04:59:02;100910.84;;;1.60;100.00
65997;BME280;52765;52.258;21.052;2023-11-19T05:01:29;100906.47;;;1.59;100.00
65997;BME280;52765;52.258;21.052;2023-11-19T05:03:56;100899.47;;;1.58;100.00
65997;BME280;52765;52.258;21.052;2023-11-19T05:06:26;100900.91;;;1.64;100.00
65997;BME280;52765;52.258;21.052;2023-11-19T05:08:52;100901.75;;;1.64;100.00
65997;BME280;52765;52.258;21.052;2023-11-19T05:11:19;100895.53;;;1.65;100.00
65997;BME280;52765;52.258;21.052;2023-11-19T05:13:45;100881.41;;;1.65;100.00
65997;BME280;52765;52.258;21.052;2023-11-19T05:16:11;100875.19;;;1.64;100.00
65997;BME280;52765;52.258;21.052;2023-11-19T05:18:39;100874.59;;;1.59;100.00
65997;BME280;52765;52.258;21.052;2023-11-19T05:21:05;100880.44;;;1.66;100.00
65997;BME280;52765;52.258;21.052;2023-11-19T05:23:33;100875.38;;;1.61;100.00
65997;BME280;52765;52.258;21.052;2023-11-19T05:26:00;100870.44;;;1.55;100.00
65997;BME280;52765;52.258;21.052;2023-11-19T05:28:26;100874.59;;;1.59;100.00
65997;BME280;52765;52.258;21.052;2023-11-19T05:30:52;100867.47;;;1.60;100.00
65997;BME280;52765;52.258;21.052;2023-11-19T05:33:17;100869.72;;;1.67;100.00
65997;BME280;52765;52.258;21.052;2023-11-19T05:35:43;100855.84;;;1.62;100.00
65997;BME280;52765;52.258;21.052;2023-11-19T05:38:08;100873.31;;;1.66;100.00
65997;BME280;52765;52.258;21.052;2023-11-19T05:40:35;100869.88;;;1.64;100.00
65997;BME280;52765;52.258;21.052;2023-11-19T05:43:01;100858.66;;;1.59;100.00
65997;BME280;52765;52.258;21.052;2023-11-19T05:45:26;100869.88;;;1.64;100.00
65997;BME280;52765;52.258;21.052;2023-11-19T05:47:52;100866.56;;;1.61;100.00
65997;BME280;52765;52.258;21.052;2023-11-19T05:50:18;100847.13;;;1.60;100.00
65997;BME280;52765;52.258;21.052;2023-11-19T05:52:47;100836.06;;;1.52;100.00
65997;BME280;52765;52.258;21.052;2023-11-19T05:55:15;100860.16;;;1.65;100.00
65997;BME280;52765;52.258;21.052;2023-11-19T05:57:41;100859.19;;;1.66;100.00
65997;BME280;52765;52.258;21.052;2023-11-19T06:00:10;100865.25;;;1.68;100.00
65997;BME280;52765;52.258;21.052;2023-11-19T06:02:36;100857.28;;;1.68;100.00
65997;BME280;52765;52.258;21.052;2023-11-19T06:05:04;100852.25;;;1.63;100.00
65997;BME280;52765;52.258;21.052;2023-11-19T06:07:31;100848.81;;;1.61;100.00
65997;BME280;52765;52.258;21.052;2023-11-19T06:10:03;100865.09;;;1.71;100.00
65997;BME280;52765;52.258;21.052;2023-11-19T06:12:31;100859.84;;;1.70;100.00
65997;BME280;52765;52.258;21.052;2023-11-19T06:14:57;100859.84;;;1.70;100.00
65997;BME280;52765;52.258;21.052;2023-11-19T06:17:23;100850.28;;;1.67;100.00
65997;BME280;52765;52.258;21.052;2023-11-19T06:19:51;100857.38;;;1.66;100.00
65997;BME280;52765;52.258;21.052;2023-11-19T06:22:19;100854.72;;;1.66;100.00
65997;BME280;52765;52.258;21.052;2023-11-19T06:24:45;100850.28;;;1.67;100.00
65997;BME280;52765;52.258;21.052;2023-11-19T06:27:10;100845.66;;;1.71;100.00
65997;BME280;52765;52.258;21.052;2023-11-19T06:29:36;100845.66;;;1.71;100.00
65997;BME280;52765;52.258;21.052;2023-11-19T06:32:01;100841.09;;;1.73;100.00
65997;BME280;52765;52.258;21.052;2023-11-19T06:34:27;100826.88;;;1.74;100.00
65997;BME280;52765;52.258;21.052;2023-11-19T06:36:53;100834.09;;;1.72;100.00
65997;BME280;52765;52.258;21.052;2023-11-19T06:39:21;100829.38;;;1.77;100.00
65997;BME280;52765;52.258;21.052;2023-11-19T06:41:47;100815.38;;;1.73;100.00
65997;BME280;52765;52.258;21.052;2023-11-19T06:44:13;100821.41;;;1.77;100.00
65997;BME280;52765;52.258;21.052;2023-11-19T06:46:41;100805.53;;;1.75;100.00
65997;BME280;52765;52.258;21.052;2023-11-19T06:49:07;100805.47;;;1.77;100.00
65997;BME280;52765;52.258;21.052;2023-11-19T06:51:35;100796.78;;;1.73;100.00
65997;BME280;52765;52.258;21.052;2023-11-19T06:54:00;100787.03;;;1.74;100.00
65997;BME280;52765;52.258;21.052;2023-11-19T06:56:26;100784.69;;;1.83;100.00
65997;BME280;52765;52.258;21.052;2023-11-19T06:58:52;100800.34;;;1.88;100.00
65997;BME280;52765;52.258;21.052;2023-11-19T07:01:18;100789.47;;;1.93;100.00
65997;BME280;52765;52.258;21.052;2023-11-19T07:03:46;100789.47;;;1.93;100.00
65997;BME280;52765;52.258;21.052;2023-11-19T07:06:12;100785.78;;;1.95;100.00
65997;BME280;52765;52.258;21.052;2023-11-19T07:08:44;100790.22;;;1.95;100.00
65997;BME280;52765;52.258;21.052;2023-11-19T07:11:10;100779.31;;;1.99;100.00
65997;BME280;52765;52.258;21.052;2023-11-19T07:13:39;100766.03;;;1.99;100.00
65997;BME280;52765;52.258;21.052;2023-11-19T07:16:05;100770.78;;;1.94;100.00
65997;BME280;52765;52.258;21.052;2023-11-19T07:18:31;100766.59;;;1.90;100.00
65997;BME280;52765;52.258;21.052;2023-11-19T07:20:57;100768.66;;;1.85;100.00
65997;BME280;52765;52.258;21.052;2023-11-19T07:23:23;100753.09;;;1.79;100.00
65997;BME280;52765;52.258;21.052;2023-11-19T07:25:48;100764.97;;;1.88;100.00
65997;BME280;52765;52.258;21.052;2023-11-19T07:28:15;100756.69;;;1.78;100.00
65997;BME280;52765;52.258;21.052;2023-11-19T07:30:42;100756.09;;;1.73;100.00
65997;BME280;52765;52.258;21.052;2023-11-19T07:33:07;100756.81;;;1.60;100.00
65997;BME280;52765;52.258;21.052;2023-11-19T07:35:33;100751.50;;;1.60;100.00
65997;BME280;52765;52.258;21.052;2023-11-19T07:37:59;100755.84;;;1.61;100.00
65997;BME280;52765;52.258;21.052;2023-11-19T07:40:25;100761.38;;;1.58;100.00
65997;BME280;52765;52.258;21.052;2023-11-19T07:42:50;100751.09;;;1.52;100.00
65997;BME280;52765;52.258;21.052;2023-11-19T07:45:16;100747.59;;;1.52;100.00
65997;BME280;52765;52.258;21.052;2023-11-19T07:47:42;100740.81;;;1.46;100.00
65997;BME280;52765;52.258;21.052;2023-11-19T07:50:11;100752.28;;;1.46;100.00
65997;BME280;52765;52.258;21.052;2023-11-19T07:52:39;100748.44;;;1.52;100.00
65997;BME280;52765;52.258;21.052;2023-11-19T07:55:08;100737.56;;;1.57;100.00
65997;BME280;52765;52.258;21.052;2023-11-19T07:57:33;100737.00;;;1.66;100.00
65997;BME280;52765;52.258;21.052;2023-11-19T07:59:59;100734.84;;;1.73;100.00
65997;BME280;52765;52.258;21.052;2023-11-19T08:02:26;100716.38;;;1.85;100.00
65997;BME280;52765;52.258;21.052;2023-11-19T08:04:52;100715.81;;;1.95;100.00
65997;BME280;52765;52.258;21.052;2023-11-19T08:07:21;100710.91;;;2.03;100.00
65997;BME280;52765;52.258;21.052;2023-11-19T08:09:47;100712.97;;;1.98;100.00
65997;BME280;52765;52.258;21.052;2023-11-19T08:12:13;100710.91;;;2.03;100.00
65997;BME280;52765;52.258;21.052;2023-11-19T08:14:41;100695.72;;;2.05;100.00
65997;BME280;52765;52.258;21.052;2023-11-19T08:17:07;100694.31;;;2.14;100.00
65997;BME280;52765;52.258;21.052;2023-11-19T08:19:32;100696.88;;;2.15;100.00
65997;BME280;52765;52.258;21.052;2023-11-19T08:21:58;100693.94;;;2.20;100.00
65997;BME280;52765;52.258;21.052;2023-11-19T08:24:23;100702.28;;;2.28;100.00
65997;BME280;52765;52.258;21.052;2023-11-19T08:26:49;100694.78;;;2.35;100.00
65997;BME280;52765;52.258;21.052;2023-11-19T08:29:14;100685.47;;;2.42;100.00
65997;BME280;52765;52.258;21.052;2023-11-19T08:31:40;100681.66;;;2.46;100.00
65997;BME280;52765;52.258;21.052;2023-11-19T08:34:06;100667.69;;;2.43;99.87
65997;BME280;52765;52.258;21.052;2023-11-19T08:36:34;100668.88;;;2.38;98.74
65997;BME280;52765;52.258;21.052;2023-11-19T08:38:59;100675.97;;;2.38;99.39
65997;BME280;52765;52.258;21.052;2023-11-19T08:41:25;100681.00;;;2.43;100.00
65997;BME280;52765;52.258;21.052;2023-11-19T08:43:53;100660.75;;;2.54;99.68
65997;BME280;52765;52.258;21.052;2023-11-19T08:46:18;100671.47;;;2.67;99.63
65997;BME280;52765;52.258;21.052;2023-11-19T08:48:44;100664.59;;;2.77;99.11
65997;BME280;52765;52.258;21.052;2023-11-19T08:51:11;100675.16;;;2.79;98.81
65997;BME280;52765;52.258;21.052;2023-11-19T08:53:37;100676.09;;;2.78;98.88
65997;BME280;52765;52.258;21.052;2023-11-19T08:56:02;100668.53;;;2.72;99.00
65997;BME280;52765;52.258;21.052;2023-11-19T08:58:29;100662.56;;;2.68;99.82
65997;BME280;52765;52.258;21.052;2023-11-19T09:00:56;100668.06;;;2.65;99.35
65997;BME280;52765;52.258;21.052;2023-11-19T09:03:31;100656.00;;;2.59;100.00
65997;BME280;52765;52.258;21.052;2023-11-19T09:05:56;100645.16;;;2.63;98.85
65997;BME280;52765;52.258;21.052;2023-11-19T09:08:22;100643.16;;;2.66;98.50
65997;BME280;52765;52.258;21.052;2023-11-19T09:10:47;100637.28;;;2.61;98.39
65997;BME280;52765;52.258;21.052;2023-11-19T09:13:13;100637.94;;;2.65;98.56
65997;BME280;52765;52.258;21.052;2023-11-19T09:15:41;100624.97;;;2.73;98.82
65997;BME280;52765;52.258;21.052;2023-11-19T09:18:07;100627.53;;;2.74;97.91
65997;BME280;52765;52.258;21.052;2023-11-19T09:20:33;100619.88;;;2.70;98.34
65997;BME280;52765;52.258;21.052;2023-11-19T09:23:05;100615.25;;;2.59;98.12
65997;BME280;52765;52.258;21.052;2023-11-19T09:25:31;100617.63;;;2.64;98.28
65997;BME280;52765;52.258;21.052;2023-11-19T09:27:57;100614.13;;;2.63;98.75
65997;BME280;52765;52.258;21.052;2023-11-19T09:30:22;100606.59;;;2.70;98.90
65997;BME280;52765;52.258;21.052;2023-11-19T09:32:48;100596.59;;;2.73;99.77
65997;BME280;52765;52.258;21.052;2023-11-19T09:35:13;100606.63;;;2.83;99.90
65997;BME280;52765;52.258;21.052;2023-11-19T09:37:40;100594.94;;;2.85;98.65
65997;BME280;52765;52.258;21.052;2023-11-19T09:40:07;100591.28;;;2.86;98.49
65997;BME280;52765;52.258;21.052;2023-11-19T09:42:43;100591.28;;;2.86;98.37
65997;BME280;52765;52.258;21.052;2023-11-19T09:45:16;100580.97;;;2.82;99.07
65997;BME280;52765;52.258;21.052;2023-11-19T09:47:47;100585.53;;;2.80;98.36
65997;BME280;52765;52.258;21.052;2023-11-19T09:50:19;100573.41;;;2.75;98.65
65997;BME280;52765;52.258;21.052;2023-11-19T09:52:46;100575.91;;;2.64;99.58
65997;BME280;52765;52.258;21.052;2023-11-19T09:55:11;100568.63;;;2.53;100.00
65997;BME280;52765;52.258;21.052;2023-11-19T09:57:40;100567.56;;;2.56;100.00
65997;BME280;52765;52.258;21.052;2023-11-19T10:00:10;100561.16;;;2.46;100.00
65997;BME280;52765;52.258;21.052;2023-11-19T10:02:46;100550.50;;;2.46;100.00
65997;BME280;52765;52.258;21.052;2023-11-19T10:05:15;100557.75;;;2.44;100.00
65997;BME280;52765;52.258;21.052;2023-11-19T10:07:40;100560.69;;;2.39;100.00
65997;BME280;52765;52.258;21.052;2023-11-19T10:10:06;100547.50;;;2.37;100.00
65997;BME280;52765;52.258;21.052;2023-11-19T10:12:32;100555.38;;;2.39;100.00
65997;BME280;52765;52.258;21.052;2023-11-19T10:14:59;100551.78;;;2.40;100.00
65997;BME280;52765;52.258;21.052;2023-11-19T10:17:34;100551.88;;;2.38;100.00
65997;BME280;52765;52.258;21.052;2023-11-19T10:20:00;100536.97;;;2.36;100.00
65997;BME280;52765;52.258;21.052;2023-11-19T10:22:27;100528.78;;;2.39;100.00
65997;BME280;52765;52.258;21.052;2023-11-19T10:24:53;100517.09;;;2.42;100.00
65997;BME280;52765;52.258;21.052;2023-11-19T10:27:18;100507.31;;;2.42;100.00
65997;BME280;52765;52.258;21.052;2023-11-19T10:29:47;100516.34;;;2.39;100.00
65997;BME280;52765;52.258;21.052;2023-11-19T10:32:13;100518.25;;;2.37;100.00
65997;BME280;52765;52.258;21.052;2023-11-19T10:34:40;100513.47;;;2.43;100.00
65997;BME280;52765;52.258;21.052;2023-11-19T10:37:09;100497.56;;;2.55;100.00
65997;BME280;52765;52.258;21.052;2023-11-19T10:39:54;100495.91;;;2.67;100.00
65997;BME280;52765;52.258;21.052;2023-11-19T10:42:20;100502.84;;;2.70;100.00
65997;BME280;52765;52.258;21.052;2023-11-19T10:44:45;100486.53;;;2.62;100.00
65997;BME280;52765;52.258;21.052;2023-11-19T10:47:13;100491.44;;;2.68;100.00
65997;BME280;52765;52.258;21.052;2023-11-19T10:49:40;100470.25;;;2.66;100.00
65997;BME280;52765;52.258;21.052;2023-11-19T10:52:08;100474.09;;;2.62;100.00
65997;BME280;52765;52.258;21.052;2023-11-19T10:54:40;100476.41;;;2.54;100.00
65997;BME280;52765;52.258;21.052;2023-11-19T10:57:30;100466.19;;;2.61;100.00
65997;BME280;52765;52.258;21.052;2023-11-19T11:00:02;100458.63;;;2.54;100.00
65997;BME280;52765;52.258;21.052;2023-11-19T11:02:39;100457.78;;;2.54;100.00
65997;BME280;52765;52.258;21.052;2023-11-19T11:05:07;100439.28;;;2.52;100.00
65997;BME280;52765;52.258;21.052;2023-11-19T11:07:33;100430.53;;;2.50;100.00
65997;BME280;52765;52.258;21.052;2023-11-19T11:10:01;100430.25;;;2.55;100.00
65997;BME280;52765;52.258;21.052;2023-11-19T11:12:27;100418.84;;;2.53;100.00
65997;BME280;52765;52.258;21.052;2023-11-19T11:14:54;100418.63;;;2.56;100.00
65997;BME280;52765;52.258;21.052;2023-11-19T11:17:24;100406.06;;;2.58;100.00
65997;BME280;52765;52.258;21.052;2023-11-19T11:19:55;100403.75;;;2.53;100.00
65997;BME280;52765;52.258;21.052;2023-11-19T11:22:22;100403.41;;;2.45;100.00
65997;BME280;52765;52.258;21.052;2023-11-19T11:25:28;100397.22;;;2.45;100.00
65997;BME280;52765;52.258;21.052;2023-11-19T11:28:24;100391.16;;;2.43;100.00
65997;BME280;52765;52.258;21.052;2023-11-19T11:36:00;100370.22;;;2.51;100.00
65997;BME280;52765;52.258;21.052;2023-11-19T11:38:36;100377.47;;;2.49;100.00
65997;BME280;52765;52.258;21.052;2023-11-19T11:43:52;100374.56;;;2.39;100.00
65997;BME280;52765;52.258;21.052;2023-11-19T11:46:56;100370.00;;;2.41;100.00
65997;BME280;52765;52.258;21.052;2023-11-19T11:49:25;100362.66;;;2.45;100.00
65997;BME280;52765;52.258;21.052;2023-11-19T11:51:58;100348.72;;;2.41;100.00
65997;BME280;52765;52.258;21.052;2023-11-19T11:59:36;100337.88;;;2.44;100.00
65997;BME280;52765;52.258;21.052;2023-11-19T12:02:03;100335.31;;;2.43;100.00
65997;BME280;52765;52.258;21.052;2023-11-19T12:04:29;100335.22;;;2.44;100.00
65997;BME280;52765;52.258;21.052;2023-11-19T12:07:13;100314.81;;;2.32;100.00
65997;BME280;52765;52.258;21.052;2023-11-19T12:09:46;100315.66;;;2.32;100.00
65997;BME280;52765;52.258;21.052;2023-11-19T12:12:23;100301.09;;;2.25;100.00
65997;BME280;52765;52.258;21.052;2023-11-19T12:15:01;100309.06;;;2.25;100.00
65997;BME280;52765;52.258;21.052;2023-11-19T12:20:05;100296.38;;;2.16;100.00
65997;BME280;52765;52.258;21.052;2023-11-19T12:22:41;100294.47;;;2.18;100.00
65997;BME280;52765;52.258;21.052;2023-11-19T12:25:09;100277.91;;;2.27;100.00
65997;BME280;52765;52.258;21.052;2023-11-19T12:27:39;100277.59;;;2.32;100.00
65997;BME280;52765;52.258;21.052;2023-11-19T12:30:06;100281.63;;;2.37;100.00
65997;BME280;52765;52.258;21.052;2023-11-19T12:32:45;100275.56;;;2.35;100.00
65997;BME280;52765;52.258;21.052;2023-11-19T12:35:11;100265.97;;;2.33;100.00
65997;BME280;52765;52.258;21.052;2023-11-19T12:37:51;100261.28;;;2.36;100.00
65997;BME280;52765;52.258;21.052;2023-11-19T12:40:21;100264.09;;;2.35;100.00
65997;BME280;52765;52.258;21.052;2023-11-19T12:42:48;100261.09;;;2.27;100.00
65997;BME280;52765;52.258;21.052;2023-11-19T12:45:14;100269.50;;;2.33;100.00
65997;BME280;52765;52.258;21.052;2023-11-19T12:47:41;100265.03;;;2.34;100.00
65997;BME280;52765;52.258;21.052;2023-11-19T12:50:08;100256.97;;;2.35;100.00
65997;BME280;52765;52.258;21.052;2023-11-19T12:52:37;100259.81;;;2.32;100.00
65997;BME280;52765;52.258;21.052;2023-11-19T12:55:26;100252.78;;;2.31;100.00
65997;BME280;52765;52.258;21.052;2023-11-19T12:57:52;100253.97;;;2.27;100.00
65997;BME280;52765;52.258;21.052;2023-11-19T13:00:23;100261.84;;;2.29;100.00
65997;BME280;52765;52.258;21.052;2023-11-19T13:02:53;100249.59;;;2.26;100.00
65997;BME280;52765;52.258;21.052;2023-11-19T13:05:33;100249.41;;;2.29;100.00
65997;BME280;52765;52.258;21.052;2023-11-19T13:08:02;100246.63;;;2.31;100.00
65997;BME280;52765;52.258;21.052;2023-11-19T13:10:30;100244.72;;;2.33;100.00
65997;BME280;52765;52.258;21.052;2023-11-19T13:13:02;100239.94;;;2.38;100.00
65997;BME280;52765;52.258;21.052;2023-11-19T13:15:29;100237.38;;;2.36;100.00
65997;BME280;52765;52.258;21.052;2023-11-19T13:17:54;100243.25;;;2.42;100.00